Time;durP1;ratioP1;P1;durP2;ratioP2;P2;SDS_P1;SDS_P2;PMS_P1;PMS_P2;Temp;Humidity;BMP_temperature;BMP_pressure;BME280_temperature;BME280_humidity;BME280_pressure;Samples;Min_cycle;Max_cycle;Signal;HPM_P1;HPM_P2
2023/12/08 00:01:19;;;;;;;5.80;3.90;;;;;;;21.89;29.50;101245.61;103482;1295;61499;-83
2023/12/08 00:03:45;;;;;;;5.50;3.70;;;;;;;21.89;29.59;101248.45;103411;1295;61840;-83
2023/12/08 00:06:11;;;;;;;5.00;3.60;;;;;;;21.89;29.54;101247.56;103560;1293;61364;-82
2023/12/08 00:08:37;;;;;;;5.50;4.00;;;;;;;21.89;29.60;101245.60;103331;1294;61485;-82
2023/12/08 00:11:04;;;;;;;7.20;3.90;;;;;;;21.90;29.60;101242.34;103242;1294;61354;-83
2023/12/08 00:13:29;;;;;;;5.80;3.70;;;;;;;21.90;29.65;101246.26;103207;1294;61397;-83
2023/12/08 00:15:55;;;;;;;5.20;3.80;;;;;;;21.90;29.50;101247.87;103415;1292;62296;-82
2023/12/08 00:18:21;;;;;;;6.20;3.70;;;;;;;21.90;29.72;101246.08;103187;1294;61393;-83
2023/12/08 00:20:47;;;;;;;5.30;3.80;;;;;;;21.91;29.58;101250.34;103205;1294;61428;-82
2023/12/08 00:23:13;;;;;;;5.70;4.10;;;;;;;21.90;29.68;101247.84;103474;1292;61841;-83
2023/12/08 00:25:40;;;;;;;6.40;4.10;;;;;;;21.90;29.52;101249.29;103684;1292;61421;-83
2023/12/08 00:28:06;;;;;;;5.30;3.60;;;;;;;21.91;29.54;101253.01;103457;1291;61936;-82
2023/12/08 00:30:31;;;;;;;6.80;3.70;;;;;;;21.91;29.61;101250.14;103429;1294;61393;-83
2023/12/08 00:32:57;;;;;;;5.40;3.90;;;;;;;21.91;29.45;101251.93;103386;1294;72311;-83
2023/12/08 00:35:22;;;;;;;5.70;3.80;;;;;;;21.91;29.71;101252.98;103000;1299;61704;-83
2023/12/08 00:37:48;;;;;;;5.20;4.10;;;;;;;21.91;29.41;101253.33;103566;1292;61438;-83
2023/12/08 00:40:15;;;;;;;5.70;4.20;;;;;;;21.92;29.53;101258.13;103259;1294;61450;-83
2023/12/08 00:42:41;;;;;;;5.20;3.70;;;;;;;21.92;29.59;101256.54;103288;1299;61344;-83
2023/12/08 00:45:07;;;;;;;6.30;4.20;;;;;;;21.92;29.49;101257.77;103432;1292;62171;-83
2023/12/08 00:47:33;;;;;;;5.20;3.90;;;;;;;21.92;29.46;101259.58;103390;1294;61787;-83
2023/12/08 00:49:58;;;;;;;6.90;4.60;;;;;;;21.92;29.58;101256.84;103316;1293;61351;-83
2023/12/08 00:52:24;;;;;;;5.60;3.90;;;;;;;21.92;29.65;101258.11;103295;1294;61803;-83
2023/12/08 00:54:49;;;;;;;4.90;3.50;;;;;;;21.93;29.53;101262.21;103432;1294;61321;-83
2023/12/08 00:57:15;;;;;;;6.10;3.80;;;;;;;21.92;29.64;101257.73;103376;1296;61460;-83
2023/12/08 00:59:41;;;;;;;5.50;4.20;;;;;;;21.93;29.54;101260.38;103896;1292;61417;-83
2023/12/08 01:02:07;;;;;;;6.20;3.80;;;;;;;21.94;29.49;101256.78;103026;1294;61428;-83
2023/12/08 01:04:33;;;;;;;5.20;3.90;;;;;;;21.94;29.48;101259.10;102994;1296;61620;-83
2023/12/08 01:06:59;;;;;;;5.20;3.80;;;;;;;21.93;29.59;101257.87;103201;1294;61391;-83
2023/12/08 01:09:24;;;;;;;5.40;4.00;;;;;;;21.94;29.49;101259.27;103182;1294;74458;-83
2023/12/08 01:11:50;;;;;;;5.40;3.90;;;;;;;21.94;29.50;101255.11;103308;1292;61496;-83
2023/12/08 01:14:16;;;;;;;5.60;3.50;;;;;;;21.94;29.48;101255.84;103494;1293;61491;-83
2023/12/08 01:16:41;;;;;;;4.90;3.70;;;;;;;21.94;29.46;101256.19;103267;1293;61366;-83
2023/12/08 01:19:08;;;;;;;6.30;4.00;;;;;;;21.95;29.50;101249.54;103536;1293;62313;-83
2023/12/08 01:21:36;;;;;;;6.10;4.00;;;;;;;21.94;29.56;101246.86;102970;1299;74451;-83
2023/12/08 01:24:01;;;;;;;6.80;4.20;;;;;;;21.94;29.54;101241.49;103155;1296;62092;-83
2023/12/08 01:26:27;;;;;;;6.20;3.80;;;;;;;21.95;29.39;101241.83;103685;1296;61404;-83
2023/12/08 01:28:53;;;;;;;5.30;3.80;;;;;;;21.95;29.43;101242.34;103553;1294;61377;-83
2023/12/08 01:31:18;;;;;;;5.70;4.00;;;;;;;21.96;29.35;101241.42;103553;1295;61358;-83
2023/12/08 01:33:44;;;;;;;5.30;3.70;;;;;;;21.96;29.37;101241.75;103634;1293;61241;-83
2023/12/08 01:36:11;;;;;;;5.50;4.00;;;;;;;21.97;29.47;101237.23;103454;1294;61300;-84
2023/12/08 01:38:37;;;;;;;6.10;4.20;;;;;;;21.96;29.52;101234.76;103774;1293;61405;-84
2023/12/08 01:41:02;;;;;;;5.80;4.00;;;;;;;21.96;29.47;101229.36;103563;1292;72607;-83
2023/12/08 01:43:28;;;;;;;6.20;4.00;;;;;;;21.97;29.39;101226.81;103585;1294;61869;-83
2023/12/08 01:45:55;;;;;;;5.50;3.80;;;;;;;21.97;29.44;101220.74;103625;1294;61325;-84
2023/12/08 01:48:20;;;;;;;4.90;3.90;;;;;;;21.97;29.41;101217.68;103458;1293;61430;-84
2023/12/08 01:50:46;;;;;;;5.60;4.10;;;;;;;21.97;29.50;101218.72;103571;1292;61390;-84
2023/12/08 01:53:12;;;;;;;5.50;4.00;;;;;;;21.98;29.36;101222.80;103378;1292;61792;-84
2023/12/08 01:55:38;;;;;;;5.90;4.10;;;;;;;21.98;29.45;101223.00;104082;1294;61427;-85
2023/12/08 01:58:03;;;;;;;6.20;4.40;;;;;;;21.98;29.44;101223.67;103098;1294;61986;-84
2023/12/08 02:00:29;;;;;;;5.10;4.00;;;;;;;21.98;29.52;101224.76;103396;1294;61489;-84
2023/12/08 02:02:55;;;;;;;5.80;4.20;;;;;;;21.98;29.34;101225.63;103617;1294;61415;-84
2023/12/08 02:05:21;;;;;;;5.30;3.80;;;;;;;21.98;29.43;101224.73;103487;1292;61354;-84
2023/12/08 02:07:47;;;;;;;7.10;4.40;;;;;;;21.99;29.50;101225.60;103081;1293;61326;-84
2023/12/08 02:10:12;;;;;;;5.40;4.00;;;;;;;21.99;29.34;101223.98;103308;1293;61408;-84
2023/12/08 02:12:38;;;;;;;5.40;3.80;;;;;;;21.99;29.43;101225.39;103400;1293;61447;-84
2023/12/08 02:15:04;;;;;;;7.20;3.80;;;;;;;21.99;29.37;101228.08;103197;1295;62082;-82
2023/12/08 02:17:38;;;;;;;5.70;4.00;;;;;;;22.00;29.32;101227.32;103346;1294;73547;-82
2023/12/08 02:20:07;;;;;;;6.00;4.30;;;;;;;22.00;29.28;101225.73;103395;1292;62071;-82
2023/12/08 02:22:33;;;;;;;5.20;3.80;;;;;;;22.00;29.52;101228.04;103431;1295;61361;-82
2023/12/08 02:24:58;;;;;;;5.50;3.70;;;;;;;22.00;29.58;101229.48;102977;1299;61506;-83
2023/12/08 02:27:24;;;;;;;6.50;4.00;;;;;;;22.00;29.46;101232.12;102930;1302;61400;-83
2023/12/08 02:29:50;;;;;;;5.30;3.60;;;;;;;22.00;29.40;101237.69;103045;1297;61568;-83
2023/12/08 02:32:35;;;;;;;5.60;4.00;;;;;;;22.01;29.42;101240.87;103094;1295;61489;-83
2023/12/08 02:35:05;;;;;;;5.40;3.90;;;;;;;22.00;29.38;101245.05;102947;1295;72745;-82
2023/12/08 02:37:32;;;;;;;6.00;4.30;;;;;;;22.00;29.40;101252.20;103425;1296;74375;-83
2023/12/08 02:39:58;;;;;;;5.30;3.40;;;;;;;22.01;29.40;101250.04;102963;1295;61415;-83
2023/12/08 02:42:23;;;;;;;5.60;4.00;;;;;;;22.01;29.41;101248.93;103116;1296;61571;-83
2023/12/08 02:44:49;;;;;;;5.80;3.90;;;;;;;22.01;29.24;101246.77;103010;1297;61374;-83
2023/12/08 02:47:14;;;;;;;5.60;4.10;;;;;;;22.01;29.33;101247.70;102983;1297;61457;-83
2023/12/08 02:49:40;;;;;;;5.40;3.90;;;;;;;22.01;29.35;101248.94;102968;1297;61337;-83
2023/12/08 02:52:06;;;;;;;5.30;3.90;;;;;;;22.01;29.40;101251.07;103041;1297;61447;-83
2023/12/08 02:54:31;;;;;;;5.80;3.90;;;;;;;22.02;29.40;101250.14;103085;1296;61446;-83
2023/12/08 02:56:57;;;;;;;5.40;3.70;;;;;;;22.02;29.32;101253.35;103066;1297;61400;-83
2023/12/08 02:59:23;;;;;;;5.70;4.00;;;;;;;22.02;29.28;101251.76;103124;1297;62446;-83
2023/12/08 03:01:48;;;;;;;5.60;4.00;;;;;;;22.02;29.46;101246.55;103296;1294;61501;-83
2023/12/08 03:04:14;;;;;;;6.70;3.90;;;;;;;22.02;29.21;101245.11;103393;1294;61843;-83
2023/12/08 03:06:40;;;;;;;7.40;4.20;;;;;;;22.02;29.43;101250.10;103231;1292;61277;-83
2023/12/08 03:09:06;;;;;;;7.10;4.20;;;;;;;22.02;29.42;101251.52;103473;1294;61411;-83
2023/12/08 03:11:31;;;;;;;5.50;3.50;;;;;;;22.03;29.34;101258.48;103421;1294;61766;-83
2023/12/08 03:13:57;;;;;;;5.90;4.40;;;;;;;22.03;29.23;101258.69;103303;1294;61389;-83
2023/12/08 03:16:23;;;;;;;5.80;3.80;;;;;;;22.03;29.28;101259.02;103243;1293;61393;-83
2023/12/08 03:18:48;;;;;;;4.60;3.70;;;;;;;22.03;29.20;101260.27;103826;1293;61385;-83
2023/12/08 03:21:23;;;;;;;5.30;3.90;;;;;;;22.03;29.26;101263.84;103425;1292;61390;-84
2023/12/08 03:23:49;;;;;;;5.40;3.90;;;;;;;22.03;29.18;101267.59;103247;1292;74444;-83
2023/12/08 03:26:15;;;;;;;5.30;3.90;;;;;;;22.03;29.33;101271.54;103501;1292;61405;-83
2023/12/08 03:28:41;;;;;;;5.60;3.50;;;;;;;22.04;29.31;101272.75;103516;1293;61412;-83
2023/12/08 03:33:50;;;;;;;5.90;3.70;;;;;;;22.04;29.28;101265.77;103739;1290;74816;-83
2023/12/08 03:36:15;;;;;;;5.00;3.80;;;;;;;22.04;29.34;101266.10;103483;1293;61847;-83
2023/12/08 03:38:41;;;;;;;5.70;4.00;;;;;;;22.04;29.26;101259.83;103264;1290;61555;-83
2023/12/08 03:41:07;;;;;;;5.80;3.80;;;;;;;22.05;29.25;101261.21;103238;1290;61394;-83
2023/12/08 03:43:32;;;;;;;4.80;3.50;;;;;;;22.04;29.10;101258.36;103579;1292;61396;-83
2023/12/08 03:45:58;;;;;;;5.30;3.80;;;;;;;22.05;29.30;101255.30;103515;1290;61385;-83
2023/12/08 03:48:24;;;;;;;5.00;3.60;;;;;;;22.05;29.13;101254.91;103394;1290;61422;-82
2023/12/08 03:50:49;;;;;;;6.30;4.30;;;;;;;22.05;29.28;101250.99;103477;1294;61380;-83
2023/12/08 03:53:15;;;;;;;6.10;4.00;;;;;;;22.05;29.31;101251.68;103445;1290;61354;-83
2023/12/08 03:55:41;;;;;;;5.70;4.20;;;;;;;22.05;29.18;101250.98;103427;1290;61290;-83
2023/12/08 03:58:07;;;;;;;5.30;4.10;;;;;;;22.06;29.26;101250.04;103588;1290;61475;-82
2023/12/08 04:00:32;;;;;;;6.10;4.20;;;;;;;22.06;29.15;101254.50;103278;1290;61559;-83
2023/12/08 04:02:58;;;;;;;6.40;4.10;;;;;;;22.06;29.14;101249.48;103359;1290;61357;-83
2023/12/08 04:05:23;;;;;;;5.90;4.20;;;;;;;22.06;29.24;101254.29;103439;1290;61476;-84
2023/12/08 04:07:49;;;;;;;6.00;4.20;;;;;;;22.06;29.26;101255.17;103257;1290;62484;-84
2023/12/08 04:10:15;;;;;;;5.70;3.90;;;;;;;22.06;29.17;101257.15;103429;1290;61450;-83
2023/12/08 04:12:41;;;;;;;5.90;3.90;;;;;;;22.07;29.13;101257.67;103415;1290;61466;-83
2023/12/08 04:15:07;;;;;;;6.50;4.00;;;;;;;22.07;29.27;101261.05;103478;1290;61296;-83
2023/12/08 04:17:33;;;;;;;6.50;4.20;;;;;;;22.07;29.34;101262.67;103687;1297;72309;-83
2023/12/08 04:19:58;;;;;;;5.90;4.20;;;;;;;22.07;29.21;101263.91;103353;1290;61341;-83
2023/12/08 04:22:26;;;;;;;6.40;4.60;;;;;;;22.07;29.08;101268.73;103350;1297;61374;-83
2023/12/08 04:24:52;;;;;;;6.00;3.90;;;;;;;22.07;29.14;101271.09;103532;1290;61413;-83
2023/12/08 04:27:17;;;;;;;7.30;4.10;;;;;;;22.08;29.22;101273.92;103572;1291;61398;-83
2023/12/08 04:29:44;;;;;;;6.80;4.40;;;;;;;22.08;29.08;101276.05;103244;1298;61430;-83
2023/12/08 04:32:09;;;;;;;5.60;4.00;;;;;;;22.08;29.27;101276.95;103407;1290;63131;-83
2023/12/08 04:34:35;;;;;;;5.40;3.70;;;;;;;22.08;29.22;101271.58;103503;1295;61380;-83
2023/12/08 04:37:00;;;;;;;5.30;4.20;;;;;;;22.08;29.21;101271.88;103436;1292;61218;-83
2023/12/08 04:39:26;;;;;;;5.20;3.80;;;;;;;22.08;29.22;101274.22;103485;1290;69299;-83
2023/12/08 04:41:52;;;;;;;6.20;4.50;;;;;;;22.09;29.03;101276.52;103491;1290;61500;-83
2023/12/08 04:44:18;;;;;;;7.80;3.90;;;;;;;22.09;29.10;101281.00;103505;1290;61412;-83
2023/12/08 04:46:43;;;;;;;6.40;4.20;;;;;;;22.09;29.01;101280.83;103296;1290;62103;-83
2023/12/08 04:49:10;;;;;;;5.50;4.00;;;;;;;22.09;29.14;101281.70;103434;1295;61398;-83
2023/12/08 04:51:35;;;;;;;7.20;4.70;;;;;;;22.09;29.26;101283.66;103434;1291;61374;-83
2023/12/08 04:54:01;;;;;;;6.40;4.10;;;;;;;22.09;29.12;101281.33;103322;1292;61431;-83
2023/12/08 04:56:27;;;;;;;6.20;4.60;;;;;;;22.09;29.05;101280.11;103634;1295;61299;-83
2023/12/08 04:58:53;;;;;;;6.20;4.50;;;;;;;22.09;29.13;101281.20;103506;1290;61300;-83
2023/12/08 05:01:18;;;;;;;6.80;5.00;;;;;;;22.08;29.04;101284.83;103411;1290;61484;-83
2023/12/08 05:03:44;;;;;;;5.90;4.50;;;;;;;22.07;29.04;101289.23;103491;1290;61409;-83
2023/12/08 05:06:10;;;;;;;8.00;5.20;;;;;;;22.05;28.94;101285.95;103389;1290;61369;-83
2023/12/08 05:08:36;;;;;;;6.10;4.80;;;;;;;22.02;28.90;101281.63;103458;1291;61422;-83
2023/12/08 05:11:01;;;;;;;7.70;5.30;;;;;;;22.00;28.77;101282.70;103617;1290;61198;-83
2023/12/08 05:13:27;;;;;;;6.90;5.30;;;;;;;21.98;28.68;101281.77;103336;1290;61390;-83
2023/12/08 05:15:53;;;;;;;6.80;4.80;;;;;;;21.96;28.57;101282.27;103370;1293;61406;-82
2023/12/08 05:18:18;;;;;;;8.60;4.90;;;;;;;21.93;28.53;101281.40;103687;1293;61492;-81
2023/12/08 05:20:44;;;;;;;7.70;5.10;;;;;;;21.89;28.41;101281.61;103625;1293;61391;-82
2023/12/08 05:23:10;;;;;;;7.90;4.90;;;;;;;21.87;28.54;101283.77;103472;1293;61862;-82
2023/12/08 05:25:35;;;;;;;7.70;5.00;;;;;;;21.82;28.44;101277.25;103642;1295;71522;-82
2023/12/08 05:28:01;;;;;;;7.00;4.80;;;;;;;21.78;28.44;101280.04;103761;1295;61294;-82
2023/12/08 05:30:27;;;;;;;9.50;5.30;;;;;;;21.74;28.34;101280.48;103651;1292;61385;-82
2023/12/08 05:32:54;;;;;;;7.90;5.70;;;;;;;21.71;28.38;101281.95;103570;1295;61328;-82
2023/12/08 05:35:19;;;;;;;8.00;5.60;;;;;;;21.67;28.41;101278.30;103475;1292;61397;-82
2023/12/08 05:37:45;;;;;;;8.10;6.10;;;;;;;21.63;28.27;101284.98;103849;1294;61310;-83
2023/12/08 05:40:12;;;;;;;8.60;5.80;;;;;;;21.58;28.16;101282.40;103675;1293;61397;-83
2023/12/08 05:42:38;;;;;;;9.90;6.50;;;;;;;21.54;28.03;101287.69;103476;1290;62194;-82
2023/12/08 05:45:04;;;;;;;7.60;4.30;;;;;;;21.50;27.92;101285.46;103926;1293;61463;-81
2023/12/08 05:47:30;;;;;;;7.10;5.00;;;;;;;21.48;27.97;101282.54;103806;1291;61282;-82
2023/12/08 05:49:55;;;;;;;9.90;5.50;;;;;;;21.45;28.20;101284.84;103663;1295;61346;-81
2023/12/08 05:52:21;;;;;;;7.90;5.80;;;;;;;21.42;28.15;101286.85;103817;1290;61290;-80
2023/12/08 05:54:46;;;;;;;9.20;6.30;;;;;;;21.38;28.11;101291.23;103910;1292;61253;-82
2023/12/08 05:57:12;;;;;;;9.40;6.30;;;;;;;21.34;28.09;101288.65;104164;1290;61762;-81
2023/12/08 05:59:38;;;;;;;11.60;6.60;;;;;;;21.30;27.98;101289.98;104130;1292;61314;-81
2023/12/08 06:02:04;;;;;;;10.50;6.70;;;;;;;21.26;28.02;101293.77;104374;1293;61380;-80
2023/12/08 06:04:29;;;;;;;13.20;6.50;;;;;;;21.23;28.16;101298.45;104199;1294;61249;-81
2023/12/08 06:06:55;;;;;;;10.90;6.60;;;;;;;21.20;28.37;101302.23;104117;1290;61377;-82
2023/12/08 06:09:21;;;;;;;9.70;6.20;;;;;;;21.18;28.32;101305.55;104335;1292;61312;-80
2023/12/08 06:11:47;;;;;;;10.10;6.80;;;;;;;21.15;28.36;101301.44;104230;1290;72535;-80
2023/12/08 06:14:12;;;;;;;10.50;7.10;;;;;;;21.14;28.37;101297.25;104372;1292;59396;-79
2023/12/08 06:16:38;;;;;;;11.80;6.90;;;;;;;21.13;28.23;101300.14;104205;1290;62867;-80
2023/12/08 06:19:07;;;;;;;9.90;7.00;;;;;;;21.14;28.29;101303.13;104031;1292;61383;-81
2023/12/08 06:21:32;;;;;;;11.10;7.20;;;;;;;21.15;28.28;101305.94;104312;1294;61312;-80
2023/12/08 06:23:58;;;;;;;10.50;6.80;;;;;;;21.17;28.09;101311.68;103990;1296;61337;-80
2023/12/08 06:26:26;;;;;;;10.90;7.10;;;;;;;21.20;28.25;101316.69;103887;1292;61412;-80
2023/12/08 06:28:53;;;;;;;10.60;6.80;;;;;;;21.22;28.04;101314.96;104530;1291;61326;-81
2023/12/08 06:31:19;;;;;;;11.50;6.90;;;;;;;21.22;28.12;101317.65;104109;1292;61384;-79
2023/12/08 06:33:44;;;;;;;12.50;7.80;;;;;;;21.21;28.10;101316.14;104076;1293;61357;-80
2023/12/08 06:36:10;;;;;;;11.40;7.00;;;;;;;21.20;27.81;101321.15;104148;1290;60434;-79
2023/12/08 06:38:39;;;;;;;10.90;7.10;;;;;;;21.22;27.84;101322.52;104056;1292;60371;-80
2023/12/08 06:41:05;;;;;;;11.10;6.90;;;;;;;21.25;27.69;101328.55;103820;1298;61408;-80
2023/12/08 06:43:32;;;;;;;9.70;6.30;;;;;;;21.28;27.85;101335.52;104188;1290;61286;-80
2023/12/08 06:46:01;;;;;;;10.10;6.30;;;;;;;21.32;27.78;101336.92;103950;1293;60144;-81
2023/12/08 06:48:27;;;;;;;10.80;6.10;;;;;;;21.35;27.84;101339.58;104111;1290;61240;-79
2023/12/08 06:50:52;;;;;;;10.70;6.60;;;;;;;21.39;28.04;101337.35;103879;1290;60322;-79
2023/12/08 06:53:18;;;;;;;13.60;5.80;;;;;;;21.42;27.94;101336.42;104061;1292;61140;-79
2023/12/08 06:55:44;;;;;;;16.90;5.70;;;;;;;21.46;28.26;101336.02;104357;1292;61491;-80
2023/12/08 06:58:09;;;;;;;16.60;5.90;;;;;;;21.50;28.86;101338.25;103877;1292;61335;-80
2023/12/08 07:00:36;;;;;;;20.60;7.20;;;;;;;21.54;29.21;101339.61;103949;1292;61363;-80
2023/12/08 07:03:02;;;;;;;16.10;6.40;;;;;;;21.57;29.49;101340.87;103972;1290;72457;-79
2023/12/08 07:05:27;;;;;;;11.60;6.20;;;;;;;21.60;29.57;101343.21;104152;1295;61307;-80
2023/12/08 07:07:55;;;;;;;13.70;6.00;;;;;;;21.63;29.62;101344.42;103843;1293;61388;-79
2023/12/08 07:10:26;;;;;;;17.70;6.10;;;;;;;21.67;29.94;101346.14;103975;1293;61972;-80
2023/12/08 07:12:51;;;;;;;13.60;6.30;;;;;;;21.70;30.07;101352.92;103631;1293;61224;-79
2023/12/08 07:15:17;;;;;;;16.10;5.60;;;;;;;21.74;30.25;101351.41;103996;1291;61746;-80
2023/12/08 07:17:43;;;;;;;14.80;5.60;;;;;;;21.77;30.20;101355.88;104204;1293;61481;-79
2023/12/08 07:20:09;;;;;;;18.30;5.80;;;;;;;21.79;30.25;101353.98;104076;1292;61256;-80
2023/12/08 07:22:35;;;;;;;12.90;6.10;;;;;;;21.80;30.17;101355.33;103810;1293;62341;-79
2023/12/08 07:25:05;;;;;;;9.50;5.70;;;;;;;21.82;30.34;101357.70;104109;1292;61304;-79
2023/12/08 07:27:32;;;;;;;9.10;5.70;;;;;;;21.83;30.29;101358.68;104143;1293;61332;-80
2023/12/08 07:30:03;;;;;;;16.10;6.20;;;;;;;21.85;30.29;101358.06;104192;1295;61281;-79
2023/12/08 07:32:30;;;;;;;9.40;5.50;;;;;;;21.86;30.33;101360.64;104614;1291;72190;-79
2023/12/08 07:34:55;;;;;;;10.10;5.80;;;;;;;21.88;30.22;101360.91;104281;1293;61509;-80
2023/12/08 07:37:22;;;;;;;10.00;5.70;;;;;;;21.89;30.19;101359.02;104111;1292;360723;-79
2023/12/08 07:39:47;;;;;;;13.70;6.10;;;;;;;21.91;30.28;101356.77;103947;1292;61291;-79
2023/12/08 07:42:14;;;;;;;10.40;6.30;;;;;;;21.92;30.10;101359.03;104189;1293;61381;-80
2023/12/08 07:44:40;;;;;;;10.50;6.10;;;;;;;21.92;30.17;101361.33;104268;1291;61310;-79
2023/12/08 07:47:07;;;;;;;10.20;6.10;;;;;;;21.94;30.14;101363.02;103952;1293;61371;-79
2023/12/08 07:49:32;;;;;;;10.80;6.10;;;;;;;21.94;30.14;101360.14;103983;1293;61393;-80
2023/12/08 07:51:59;;;;;;;13.80;6.80;;;;;;;21.95;30.09;101358.81;104075;1292;61419;-81
2023/12/08 07:54:31;;;;;;;11.50;6.60;;;;;;;21.96;30.04;101364.49;104284;1293;72619;-80
2023/12/08 07:56:58;;;;;;;17.00;6.90;;;;;;;21.97;30.08;101362.46;104251;1290;74521;-79
2023/12/08 07:59:25;;;;;;;18.30;7.10;;;;;;;21.97;30.45;101364.24;104131;1291;61226;-80
2023/12/08 08:01:50;;;;;;;18.20;7.00;;;;;;;21.98;30.92;101365.77;103650;1293;61323;-78
2023/12/08 08:04:16;;;;;;;16.50;6.50;;;;;;;21.99;31.02;101366.63;103782;1293;61361;-80
2023/12/08 08:06:42;;;;;;;21.20;6.80;;;;;;;22.00;31.19;101365.50;104052;1295;61492;-79
2023/12/08 08:09:08;;;;;;;15.90;6.60;;;;;;;22.00;31.19;101357.23;104068;1292;60229;-78
2023/12/08 08:11:33;;;;;;;17.60;6.50;;;;;;;22.01;31.09;101354.16;103972;1290;61408;-79
2023/12/08 08:13:59;;;;;;;11.00;6.40;;;;;;;22.02;30.98;101363.05;104096;1293;61382;-79
2023/12/08 08:16:25;;;;;;;13.40;6.40;;;;;;;22.02;31.25;101361.40;103893;1290;72597;-79
2023/12/08 08:18:52;;;;;;;12.40;6.60;;;;;;;22.03;31.11;101363.50;103826;1291;74364;-79
2023/12/08 08:21:18;;;;;;;9.30;5.90;;;;;;;22.03;31.15;101364.02;103879;1293;61114;-79
2023/12/08 08:23:43;;;;;;;11.90;6.40;;;;;;;22.04;31.13;101360.39;104077;1293;61861;-78
2023/12/08 08:26:09;;;;;;;11.90;6.60;;;;;;;22.04;31.23;101362.52;104103;1293;61247;-79
2023/12/08 08:28:35;;;;;;;13.40;6.50;;;;;;;22.05;31.13;101363.88;103723;1294;62268;-78
2023/12/08 08:31:01;;;;;;;13.50;6.90;;;;;;;22.05;31.11;101362.81;103884;1297;61480;-80
2023/12/08 08:33:26;;;;;;;12.20;6.70;;;;;;;22.05;31.16;101361.92;103793;1290;61515;-79
2023/12/08 08:35:52;;;;;;;18.10;6.60;;;;;;;22.06;31.19;101355.42;104147;1294;61368;-79
2023/12/08 08:38:18;;;;;;;17.20;6.40;;;;;;;22.05;31.27;101355.63;103997;1294;61335;-79
2023/12/08 08:40:43;;;;;;;9.40;6.40;;;;;;;22.05;31.20;101360.64;104189;1293;61749;-79
2023/12/08 08:43:09;;;;;;;13.90;6.60;;;;;;;22.06;31.28;101357.42;103999;1292;61399;-81
2023/12/08 08:45:35;;;;;;;12.80;6.90;;;;;;;22.06;31.18;101359.00;103887;1293;59390;-78
2023/12/08 08:48:01;;;;;;;14.70;6.60;;;;;;;22.06;31.43;101357.52;104228;1293;61246;-80
2023/12/08 08:50:27;;;;;;;12.40;7.10;;;;;;;22.06;31.39;101359.52;104377;1298;61424;-81
2023/12/08 08:52:52;;;;;;;15.60;7.60;;;;;;;22.05;31.27;101362.06;104205;1293;61435;-82
2023/12/08 08:55:18;;;;;;;22.30;8.40;;;;;;;22.02;31.27;101366.80;104322;1290;61319;-80
2023/12/08 08:57:44;;;;;;;20.90;10.30;;;;;;;21.96;31.43;101364.49;104334;1290;61412;-80
2023/12/08 09:00:12;;;;;;;16.30;9.40;;;;;;;21.88;31.10;101364.85;104370;1290;61291;-81
2023/12/08 09:02:38;;;;;;;19.30;9.70;;;;;;;21.81;31.22;101363.36;103784;1298;71410;-79
2023/12/08 09:05:05;;;;;;;15.30;9.60;;;;;;;21.77;31.26;101358.77;103848;1293;61389;-80
2023/12/08 09:07:30;;;;;;;19.70;9.90;;;;;;;21.75;31.24;101350.28;104055;1292;61953;-80
2023/12/08 09:09:57;;;;;;;14.80;9.50;;;;;;;21.75;31.22;101347.58;103951;1293;61348;-80
2023/12/08 09:12:22;;;;;;;15.30;9.60;;;;;;;21.75;31.29;101342.41;104014;1293;61412;-80
2023/12/08 09:14:48;;;;;;;16.30;9.40;;;;;;;21.75;31.15;101338.66;104266;1290;61435;-81
2023/12/08 09:17:14;;;;;;;20.00;9.10;;;;;;;21.75;31.20;101336.30;104379;1291;59447;-81
2023/12/08 09:19:39;;;;;;;14.70;8.90;;;;;;;21.76;31.12;101334.45;104489;1293;61263;-81
2023/12/08 09:22:05;;;;;;;12.70;8.00;;;;;;;21.77;31.30;101330.77;104271;1291;61323;-81
2023/12/08 09:24:31;;;;;;;15.70;7.90;;;;;;;21.79;31.14;101328.33;104134;1293;59545;-81
2023/12/08 09:26:56;;;;;;;15.10;8.30;;;;;;;21.80;31.25;101323.05;104062;1293;61406;-82
2023/12/08 09:29:22;;;;;;;13.50;8.30;;;;;;;21.82;31.22;101322.05;104132;1293;59404;-79
2023/12/08 09:31:48;;;;;;;13.90;8.10;;;;;;;21.83;31.28;101321.62;104189;1296;59390;-81
2023/12/08 09:34:14;;;;;;;16.20;8.50;;;;;;;21.83;31.33;101318.36;104759;1290;61344;-81
2023/12/08 09:36:40;;;;;;;17.50;8.80;;;;;;;21.84;31.50;101312.59;104223;1290;72501;-82
2023/12/08 09:39:08;;;;;;;14.10;7.40;;;;;;;21.85;31.63;101313.59;104202;1293;61408;-80
2023/12/08 09:41:35;;;;;;;14.60;7.90;;;;;;;21.86;31.77;101306.55;104366;1293;60085;-80
2023/12/08 09:44:12;;;;;;;13.90;8.40;;;;;;;21.88;31.71;101309.27;104885;1293;61323;-81
2023/12/08 09:46:37;;;;;;;18.20;8.40;;;;;;;21.89;32.05;101303.27;104418;1291;72442;-81
2023/12/08 09:49:03;;;;;;;15.90;9.00;;;;;;;21.91;31.90;101306.59;104187;1290;61342;-80
2023/12/08 09:51:29;;;;;;;26.80;12.50;;;;;;;21.90;31.97;101305.92;104552;1293;61317;-80
2023/12/08 09:53:55;;;;;;;23.30;13.70;;;;;;;21.83;31.96;101301.04;104630;1290;61260;-79
2023/12/08 09:56:24;;;;;;;34.60;15.50;;;;;;;21.73;31.81;101300.45;104391;1297;59503;-80
2023/12/08 09:58:50;;;;;;;20.50;13.30;;;;;;;21.65;31.68;101298.66;104331;1295;74545;-79
2023/12/08 10:01:17;;;;;;;22.60;13.30;;;;;;;21.56;31.90;101299.54;104253;1292;61412;-79
2023/12/08 10:03:44;;;;;;;23.10;12.40;;;;;;;21.51;32.09;101297.70;104244;1291;61319;-79
2023/12/08 10:06:09;;;;;;;20.40;13.00;;;;;;;21.47;32.03;101297.64;104216;1294;72488;-81
2023/12/08 10:08:36;;;;;;;28.10;14.80;;;;;;;21.42;31.89;101304.58;103861;1292;61702;-81
2023/12/08 10:11:02;;;;;;;18.90;12.20;;;;;;;21.35;31.67;101303.42;103909;1295;59521;-79
2023/12/08 10:13:28;;;;;;;19.80;11.70;;;;;;;21.29;31.57;101299.70;104499;1294;59344;-80
2023/12/08 10:15:56;;;;;;;21.10;12.90;;;;;;;21.24;31.55;101299.27;104302;1293;61218;-80
2023/12/08 10:18:23;;;;;;;18.00;11.40;;;;;;;21.20;31.40;101292.88;104371;1292;74326;-80
2023/12/08 10:20:49;;;;;;;16.50;11.60;;;;;;;21.18;31.34;101291.41;104325;1291;61303;-82
2023/12/08 10:23:20;;;;;;;23.10;12.60;;;;;;;21.15;31.41;101288.96;104219;1291;62785;-82
2023/12/08 10:25:47;;;;;;;19.50;11.10;;;;;;;21.11;31.30;101288.09;104282;1294;72570;-79
2023/12/08 10:28:13;;;;;;;16.60;11.00;;;;;;;21.08;31.14;101282.74;103737;1294;74718;-80
2023/12/08 10:30:43;;;;;;;20.80;12.50;;;;;;;21.06;31.20;101278.75;103929;1293;61364;-79
2023/12/08 10:33:18;;;;;;;24.60;12.70;;;;;;;21.05;31.05;101280.75;103722;1293;61336;-79
2023/12/08 10:35:44;;;;;;;16.40;11.40;;;;;;;21.05;31.12;101276.44;103894;1290;72512;-79
2023/12/08 10:38:10;;;;;;;19.50;12.00;;;;;;;21.06;31.25;101274.45;103670;1293;61275;-79
2023/12/08 10:40:35;;;;;;;21.40;12.20;;;;;;;21.08;31.66;101276.46;104017;1293;61397;-79
2023/12/08 10:43:01;;;;;;;16.30;11.40;;;;;;;21.10;31.92;101272.41;103878;1292;61286;-82
2023/12/08 10:45:27;;;;;;;22.70;11.70;;;;;;;21.12;31.76;101276.41;104180;1293;61332;-81
2023/12/08 10:47:52;;;;;;;18.70;12.70;;;;;;;21.14;31.91;101274.66;103911;1293;61320;-81
2023/12/08 10:50:18;;;;;;;25.50;13.40;;;;;;;21.14;31.91;101268.05;104082;1291;61268;-80
2023/12/08 10:52:44;;;;;;;20.70;12.60;;;;;;;21.14;32.32;101263.97;104104;1290;61745;-82
2023/12/08 10:55:12;;;;;;;21.60;14.20;;;;;;;21.12;32.26;101254.55;103484;1292;61492;-81
2023/12/08 10:57:38;;;;;;;23.20;15.20;;;;;;;21.10;32.05;101250.58;103193;1291;61541;-79
2023/12/08 11:00:16;;;;;;;21.00;14.40;;;;;;;21.09;32.03;101252.63;103386;1294;61587;-80
2023/12/08 11:02:43;;;;;;;21.20;14.00;;;;;;;21.07;31.94;101250.79;104352;1290;61214;-80
2023/12/08 11:05:11;;;;;;;33.20;18.20;;;;;;;21.00;31.66;101247.78;104214;1293;61265;-79
2023/12/08 11:07:38;;;;;;;27.00;17.20;;;;;;;20.76;31.26;101241.13;104203;1293;72283;-81
2023/12/08 11:10:07;;;;;;;29.80;20.00;;;;;;;20.65;31.47;101238.91;104623;1294;74570;-80